Time;durP1;ratioP1;P1;durP2;ratioP2;P2;SDS_P1;SDS_P2;PMS_P1;PMS_P2;Temp;Humidity;BMP_temperature;BMP_pressure;BME280_temperature;BME280_humidity;BME280_pressure;Samples;Min_cycle;Max_cycle;Signal;HPM_P1;HPM_P2
2024/03/06 00:00:33;;;;;;;0.10;0.10;;;;;;;;;;4973929;28;20085;-87
2024/03/06 00:02:58;;;;;;;0.10;0.10;;;;;;;;;;4967369;28;20084;-87
2024/03/06 00:05:24;;;;;;;0.10;0.10;;;;;;;;;;4969631;28;20377;-87
2024/03/06 00:07:51;;;;;;;0.00;0.00;;;;;;;;;;4975078;28;20106;-87
2024/03/06 00:10:17;;;;;;;0.10;0.10;;;;;;;;;;4971582;28;20034;-87
2024/03/06 00:12:43;;;;;;;0.10;0.10;;;;;;;;;;4972802;28;20030;-87
2024/03/06 00:15:09;;;;;;;0.10;0.10;;;;;;;;;;4971483;28;20416;-87
2024/03/06 00:17:35;;;;;;;0.10;0.10;;;;;;;;;;4971029;28;20121;-87
2024/03/06 00:20:01;;;;;;;0.08;0.08;;;;;;;;;;4973164;28;20058;-87
2024/03/06 00:22:27;;;;;;;0.10;0.10;;;;;;;;;;4968549;28;20118;-87
2024/03/06 00:24:53;;;;;;;0.10;0.10;;;;;;;;;;4967400;28;20055;-87
2024/03/06 00:27:19;;;;;;;0.10;0.10;;;;;;;;;;4969704;28;20037;-87
2024/03/06 00:29:45;;;;;;;0.10;0.10;;;;;;;;;;4969906;28;20031;-88
2024/03/06 00:32:10;;;;;;;0.10;0.10;;;6.60;99.90;;;;;;4969954;28;20098;-88
2024/03/06 00:34:36;;;;;;;0.10;0.10;;;;;;;;;;4969667;28;20495;-86
2024/03/06 00:37:02;;;;;;;0.00;0.00;;;;;;;;;;4968100;28;20146;-88
2024/03/06 00:39:28;;;;;;;0.10;0.10;;;;;;;;;;4969631;28;20030;-88
2024/03/06 00:41:54;;;;;;;0.10;0.10;;;;;;;;;;4971365;28;20100;-85
2024/03/06 00:44:20;;;;;;;0.10;0.10;;;;;;;;;;4969372;28;20027;-88
2024/03/06 00:46:46;;;;;;;0.00;0.00;;;;;;;;;;4972482;28;20399;-88
2024/03/06 00:49:12;;;;;;;0.10;0.10;;;;;;;;;;4968544;28;20050;-88
2024/03/06 00:51:38;;;;;;;0.10;0.10;;;;;;;;;;4970467;28;20086;-87
2024/03/06 00:54:04;;;;;;;0.10;0.10;;;;;;;;;;4971285;28;20030;-88
2024/03/06 00:56:31;;;;;;;0.10;0.10;;;;;;;;;;4969500;28;20504;-89
2024/03/06 00:58:57;;;;;;;0.10;0.10;;;;;;;;;;4969385;28;20046;-88
2024/03/06 01:01:23;;;;;;;0.10;0.10;;;;;;;;;;4969334;28;20038;-87
2024/03/06 01:03:49;;;;;;;0.10;0.10;;;;;;;;;;4969074;28;20082;-87
2024/03/06 01:06:15;;;;;;;0.10;0.10;;;;;;;;;;4969869;28;20038;-88
2024/03/06 01:08:41;;;;;;;0.10;0.10;;;;;;;;;;4971809;28;20106;-88
2024/03/06 01:11:06;;;;;;;0.10;0.10;;;;;;;;;;4971163;28;20089;-88
2024/03/06 01:13:32;;;;;;;0.10;0.10;;;;;;;;;;4970249;28;20093;-88
2024/03/06 01:15:58;;;;;;;0.10;0.10;;;;;;;;;;4969483;28;20571;-87
2024/03/06 01:18:24;;;;;;;0.10;0.10;;;;;;;;;;4967919;28;20038;-88
2024/03/06 01:20:50;;;;;;;0.10;0.10;;;;;;;;;;4986273;28;20029;-87
2024/03/06 01:23:16;;;;;;;0.08;0.08;;;;;;;;;;4971046;28;20034;-87
2024/03/06 01:25:42;;;;;;;0.10;0.10;;;;;;;;;;4970985;28;20035;-88
2024/03/06 01:28:08;;;;;;;0.10;0.10;;;;;;;;;;4968295;28;20026;-87
2024/03/06 01:30:34;;;;;;;0.10;0.10;;;;;;;;;;4970063;28;20147;-88
2024/03/06 01:33:01;;;;;;;0.10;0.10;;;;;;;;;;4969610;28;20057;-88
2024/03/06 01:35:27;;;;;;;0.10;0.10;;;;;;;;;;4971010;28;20034;-87
2024/03/06 01:37:52;;;;;;;0.10;0.10;;;;;;;;;;4969131;28;20542;-87
2024/03/06 01:40:18;;;;;;;0.10;0.10;;;;;;;;;;4968859;28;20644;-86
2024/03/06 01:42:47;;;;;;;0.10;0.10;;;6.60;99.90;;;;;;4972071;28;20159;-87
2024/03/06 01:45:13;;;;;;;0.10;0.10;;;;;;;;;;4968717;28;20043;-87
2024/03/06 01:47:39;;;;;;;0.10;0.10;;;;;;;;;;4971115;28;20023;-87
2024/03/06 01:50:08;;;;;;;0.10;0.10;;;;;;;;;;4967769;28;20026;-88
2024/03/06 01:52:34;;;;;;;0.10;0.10;;;;;;;;;;4970792;28;20027;-87
2024/03/06 01:55:00;;;;;;;0.10;0.10;;;;;;;;;;4970387;28;20042;-87
2024/03/06 01:57:26;;;;;;;0.10;0.10;;;;;;;;;;4973065;28;20121;-88
2024/03/06 01:59:52;;;;;;;0.10;0.10;;;;;;;;;;4969782;28;20035;-88
2024/03/06 02:02:18;;;;;;;0.10;0.10;;;;;;;;;;4969229;28;20030;-87
2024/03/06 02:04:44;;;;;;;0.10;0.10;;;;;;;;;;4969093;28;20042;-87
2024/03/06 02:07:11;;;;;;;0.10;0.10;;;;;;;;;;4971090;28;20037;-88
2024/03/06 02:09:37;;;;;;;0.10;0.10;;;;;;;;;;4965151;28;20535;-87
2024/03/06 02:12:03;;;;;;;0.10;0.10;;;;;;;;;;4970041;28;20034;-87
2024/03/06 02:14:29;;;;;;;0.10;0.10;;;6.50;99.90;;;;;;4966155;28;20045;-88
2024/03/06 02:37:37;;;;;;;0.10;0.10;;;;;;;;;;4996104;28;20045;-93
2024/03/06 02:40:06;;;;;;;0.10;0.10;;;;;;;;;;4974612;28;20042;-92
2024/03/06 02:42:33;;;;;;;0.10;0.10;;;;;;;;;;4975076;28;20022;-93
2024/03/06 02:44:59;;;;;;;0.10;0.10;;;;;;;;;;4971014;28;20038;-92
2024/03/06 02:47:25;;;;;;;0.10;0.10;;;;;;;;;;4975589;28;20030;-92
2024/03/06 02:54:56;;;;;;;0.10;0.10;;;;;;;;;;5012685;28;20078;-88
2024/03/06 02:57:22;;;;;;;0.10;0.10;;;;;;;;;;5015341;28;20030;-87
2024/03/06 02:59:48;;;;;;;0.10;0.10;;;;;;;;;;4998049;28;20038;-88
2024/03/06 03:02:14;;;;;;;0.10;0.10;;;;;;;;;;4994715;28;20049;-88
2024/03/06 03:04:40;;;;;;;0.10;0.10;;;;;;;;;;4996619;28;20026;-87
2024/03/06 03:07:05;;;;;;;0.10;0.10;;;;;;;;;;4993735;28;20026;-88
2024/03/06 03:09:31;;;;;;;0.10;0.10;;;;;;;;;;4990733;28;20030;-88
2024/03/06 03:11:59;;;;;;;0.10;0.10;;;;;;;;;;4994565;28;20058;-88
2024/03/06 03:14:25;;;;;;;0.10;0.10;;;;;;;;;;4992976;28;20414;-87
2024/03/06 03:16:51;;;;;;;0.10;0.10;;;;;;;;;;4993255;28;20030;-87
2024/03/06 03:19:17;;;;;;;0.00;0.00;;;;;;;;;;4994837;28;20034;-88
2024/03/06 03:21:44;;;;;;;0.10;0.10;;;6.50;99.90;;;;;;4994527;28;20448;-88
2024/03/06 03:24:10;;;;;;;0.10;0.10;;;;;;;;;;4996736;28;20046;-88
2024/03/06 03:26:37;;;;;;;0.10;0.10;;;;;;;;;;4995623;28;20093;-88
2024/03/06 03:29:03;;;;;;;0.10;0.10;;;;;;;;;;4992832;28;20018;-88
2024/03/06 03:31:29;;;;;;;0.10;0.10;;;6.60;99.90;;;;;;4996061;28;20034;-88
2024/03/06 03:33:55;;;;;;;0.10;0.10;;;;;;;;;;4997871;28;20416;-88
2024/03/06 03:36:20;;;;;;;0.00;0.00;;;;;;;;;;4994790;28;20042;-88
2024/03/06 03:38:46;;;;;;;0.00;0.00;;;6.50;99.90;;;;;;4996055;28;20037;-88
2024/03/06 03:41:12;;;;;;;0.10;0.10;;;6.80;99.90;;;;;;4995807;28;20377;-88
2024/03/06 03:43:39;;;;;;;0.00;0.00;;;6.70;99.90;;;;;;4996357;28;20065;-88
2024/03/06 03:46:06;;;;;;;0.10;0.10;;;;;;;;;;4994779;28;20061;-87
2024/03/06 03:48:35;;;;;;;0.10;0.10;;;;;;;;;;4991537;28;20117;-88
2024/03/06 03:51:01;;;;;;;0.10;0.10;;;;;;;;;;4993956;28;20034;-86
2024/03/06 03:53:27;;;;;;;0.10;0.10;;;;;;;;;;4996085;28;20034;-88
2024/03/06 03:55:53;;;;;;;0.10;0.10;;;;;;;;;;4993973;28;20164;-88
2024/03/06 03:58:19;;;;;;;0.10;0.10;;;;;;;;;;4994063;28;20034;-87
2024/03/06 04:00:45;;;;;;;0.10;0.10;;;;;;;;;;4998373;28;20053;-88
2024/03/06 04:03:11;;;;;;;0.10;0.10;;;;;;;;;;4996497;28;20080;-88
2024/03/06 04:05:37;;;;;;;0.10;0.10;;;;;;;;;;4990265;28;20031;-89
2024/03/06 04:08:06;;;;;;;0.10;0.10;;;;;;;;;;4995857;28;20049;-87
2024/03/06 04:10:32;;;;;;;0.10;0.10;;;;;;;;;;4995696;28;20463;-87
2024/03/06 04:12:59;;;;;;;0.10;0.10;;;;;;;;;;4995305;28;20065;-87
2024/03/06 04:15:25;;;;;;;0.10;0.10;;;;;;;;;;4993624;28;20041;-88
2024/03/06 04:17:52;;;;;;;0.10;0.10;;;;;;;;;;4995234;28;20046;-87
2024/03/06 04:20:18;;;;;;;0.10;0.10;;;;;;;;;;4996047;28;20034;-88
2024/03/06 04:22:46;;;;;;;0.00;0.00;;;;;;;;;;4996934;28;20389;-88
2024/03/06 04:25:12;;;;;;;0.00;0.00;;;;;;;;;;4993570;28;20038;-89
2024/03/06 04:27:38;;;;;;;0.10;0.10;;;;;;;;;;4996628;28;20567;-87
2024/03/06 04:30:04;;;;;;;0.00;0.00;;;6.40;99.90;;;;;;4992852;28;20081;-87
2024/03/06 04:32:30;;;;;;;0.10;0.10;;;;;;;;;;4996711;28;20030;-88
2024/03/06 04:34:56;;;;;;;0.10;0.10;;;;;;;;;;4995366;28;20591;-87
2024/03/06 04:37:22;;;;;;;0.10;0.10;;;;;;;;;;4991240;28;20180;-88
2024/03/06 04:39:48;;;;;;;0.10;0.10;;;;;;;;;;4996888;28;20129;-87
2024/03/06 04:42:14;;;;;;;0.10;0.10;;;;;;;;;;4997649;28;20049;-88
2024/03/06 04:44:42;;;;;;;0.10;0.10;;;;;;;;;;4995311;28;20034;-87
2024/03/06 04:47:08;;;;;;;0.00;0.00;;;;;;;;;;4993045;28;20113;-88
2024/03/06 04:49:34;;;;;;;0.00;0.00;;;6.70;99.90;;;;;;4994232;28;20254;-88
2024/03/06 04:52:01;;;;;;;0.10;0.10;;;;;;;;;;4997558;28;20105;-88
2024/03/06 04:54:27;;;;;;;0.10;0.10;;;;;;;;;;4992349;28;20043;-88
2024/03/06 04:56:52;;;;;;;0.10;0.10;;;6.70;99.90;;;;;;4992570;28;20030;-87
2024/03/06 04:59:18;;;;;;;0.10;0.10;;;;;;;;;;4991967;28;20407;-88
2024/03/06 05:01:44;;;;;;;0.10;0.10;;;6.60;99.90;;;;;;4994584;28;20031;-87
2024/03/06 05:04:11;;;;;;;0.10;0.10;;;;;;;;;;4993288;28;20475;-87
2024/03/06 05:06:37;;;;;;;0.10;0.10;;;6.70;99.90;;;;;;4991466;28;20030;-87
2024/03/06 05:09:04;;;;;;;0.10;0.10;;;;;;;;;;4987376;28;20197;-85
2024/03/06 05:11:31;;;;;;;0.00;0.00;;;;;;;;;;5008247;28;20100;-88
2024/03/06 05:13:59;;;;;;;0.00;0.00;;;6.60;99.90;;;;;;4995134;28;20041;-88
2024/03/06 05:16:26;;;;;;;0.10;0.10;;;;;;;;;;4990693;28;20044;-88
2024/03/06 05:18:52;;;;;;;0.10;0.10;;;;;;;;;;4992213;28;20037;-87
2024/03/06 05:21:18;;;;;;;0.10;0.10;;;;;;;;;;4988760;28;20034;-88
2024/03/06 05:23:44;;;;;;;0.10;0.10;;;;;;;;;;4992136;28;20031;-88
2024/03/06 05:26:10;;;;;;;0.10;0.10;;;;;;;;;;4993969;28;20034;-87
2024/03/06 05:28:36;;;;;;;0.10;0.10;;;;;;;;;;4993220;28;20030;-88
2024/03/06 05:31:17;;;;;;;0.10;0.10;;;6.50;99.90;;;;;;4991788;28;20121;-88
2024/03/06 05:33:43;;;;;;;0.10;0.10;;;;;;;;;;4994396;28;20027;-88
2024/03/06 05:36:09;;;;;;;0.10;0.10;;;;;;;;;;4990675;28;20121;-88
2024/03/06 05:38:35;;;;;;;0.10;0.10;;;;;;;;;;4988001;28;20098;-88
2024/03/06 05:41:02;;;;;;;0.10;0.10;;;;;;;;;;4988418;28;20120;-88
2024/03/06 05:43:28;;;;;;;0.10;0.10;;;;;;;;;;4985677;28;20477;-88
2024/03/06 05:45:54;;;;;;;0.10;0.10;;;;;;;;;;4976966;28;20042;-88
2024/03/06 05:48:20;;;;;;;0.05;0.05;;;;;;;;;;4988541;28;20035;-88
2024/03/06 05:50:46;;;;;;;0.10;0.10;;;;;;;;;;4982018;28;20023;-89
2024/03/06 05:53:11;;;;;;;0.10;0.10;;;;;;;;;;4984953;28;20053;-88
2024/03/06 05:55:38;;;;;;;0.10;0.10;;;;;;;;;;4988065;28;20038;-87
2024/03/06 05:58:05;;;;;;;0.10;0.10;;;;;;;;;;4997939;28;20037;-88
2024/03/06 06:00:31;;;;;;;0.10;0.10;;;;;;;;;;4994419;28;20040;-88
2024/03/06 06:02:57;;;;;;;0.10;0.10;;;;;;;;;;5013328;28;20118;-87
2024/03/06 06:05:24;;;;;;;0.00;0.00;;;6.60;99.90;;;;;;4999651;28;20034;-87
2024/03/06 06:07:50;;;;;;;0.10;0.10;;;;;;;;;;4996191;28;20027;-88
2024/03/06 06:10:16;;;;;;;0.10;0.10;;;;;;;;;;4997773;28;20268;-88
2024/03/06 06:12:42;;;;;;;0.03;0.03;;;;;;;;;;4996171;28;20481;-88
2024/03/06 06:15:08;;;;;;;0.00;0.00;;;;;;;;;;4997385;28;20034;-88
2024/03/06 06:17:34;;;;;;;0.10;0.10;;;;;;;;;;4993082;28;20393;-88
2024/03/06 06:20:00;;;;;;;0.10;0.10;;;;;;;;;;4998173;28;20037;-88
2024/03/06 06:22:29;;;;;;;0.10;0.10;;;;;;;;;;4994293;28;20412;-87
2024/03/06 06:24:56;;;;;;;0.10;0.10;;;;;;;;;;4993372;28;20076;-88
2024/03/06 06:27:22;;;;;;;0.10;0.10;;;;;;;;;;4998336;28;20064;-88
2024/03/06 06:29:48;;;;;;;0.10;0.10;;;;;;;;;;4999110;28;20022;-87
2024/03/06 06:32:14;;;;;;;0.00;0.00;;;;;;;;;;4997153;28;20041;-86
2024/03/06 06:34:40;;;;;;;0.10;0.10;;;;;;;;;;4997842;28;20037;-87
2024/03/06 06:37:06;;;;;;;0.10;0.10;;;;;;;;;;4999931;28;20026;-86
2024/03/06 06:39:34;;;;;;;0.10;0.10;;;;;;;;;;4990684;28;20034;-88
2024/03/06 06:42:00;;;;;;;0.10;0.10;;;;;;;;;;4998755;28;20515;-88
2024/03/06 06:44:26;;;;;;;0.00;0.00;;;;;;;;;;4996517;28;20026;-88
2024/03/06 06:46:52;;;;;;;0.10;0.10;;;;;;;;;;5000728;28;20069;-88
2024/03/06 06:49:19;;;;;;;0.10;0.10;;;;;;;;;;4993400;28;20464;-87
2024/03/06 06:51:45;;;;;;;0.10;0.10;;;;;;;;;;5000245;28;20052;-87
2024/03/06 06:54:10;;;;;;;0.10;0.10;;;7.30;99.90;;;;;;4995845;28;20031;-87
2024/03/06 06:56:36;;;;;;;0.10;0.10;;;;;;;;;;4993352;28;20416;-87
2024/03/06 06:59:02;;;;;;;0.10;0.10;;;7.30;99.90;;;;;;4997420;28;20034;-87
2024/03/06 07:01:28;;;;;;;0.10;0.10;;;;;;;;;;4993317;28;20073;-87
2024/03/06 07:03:54;;;;;;;0.00;0.00;;;;;;;;;;4996260;28;20030;-88
2024/03/06 07:06:20;;;;;;;0.10;0.10;;;;;;;;;;4997059;28;20031;-87
2024/03/06 07:08:46;;;;;;;0.10;0.10;;;;;;;;;;4991987;28;20025;-88
2024/03/06 07:11:13;;;;;;;0.10;0.10;;;;;;;;;;4999067;28;20023;-88
2024/03/06 07:13:39;;;;;;;0.10;0.10;;;;;;;;;;4999353;28;20018;-88
2024/03/06 07:16:05;;;;;;;0.10;0.10;;;;;;;;;;4998246;28;20053;-88
2024/03/06 07:18:31;;;;;;;0.00;0.00;;;;;;;;;;4998796;28;20038;-88
2024/03/06 07:20:57;;;;;;;0.10;0.10;;;;;;;;;;4998343;28;20022;-87
2024/03/06 07:23:23;;;;;;;0.00;0.00;;;;;;;;;;4997982;28;20053;-88
2024/03/06 07:25:49;;;;;;;0.00;0.00;;;;;;;;;;4993511;28;20546;-88
2024/03/06 07:28:15;;;;;;;0.10;0.10;;;;;;;;;;4993891;28;20035;-88
2024/03/06 07:30:41;;;;;;;0.10;0.10;;;;;;;;;;4998813;28;20460;-88
2024/03/06 07:33:07;;;;;;;0.03;0.03;;;;;;;;;;4998716;28;20109;-88
2024/03/06 07:35:36;;;;;;;0.10;0.10;;;;;;;;;;4995579;28;20034;-87
2024/03/06 07:38:03;;;;;;;0.03;0.03;;;;;;;;;;4998586;28;20045;-88
2024/03/06 07:40:29;;;;;;;0.10;0.10;;;;;;;;;;4999160;28;20030;-87
2024/03/06 07:42:54;;;;;;;0.10;0.10;;;;;;;;;;4994207;28;20370;-89
2024/03/06 07:45:20;;;;;;;0.10;0.10;;;;;;;;;;5011650;28;20489;-88
2024/03/06 07:47:46;;;;;;;0.10;0.10;;;;;;;;;;4997055;28;20022;-88
2024/03/06 07:50:18;;;;;;;0.08;0.08;;;;;;;;;;4991294;28;20022;-88
2024/03/06 07:52:44;;;;;;;0.10;0.10;;;;;;;;;;4993701;28;20027;-88
2024/03/06 07:55:10;;;;;;;0.10;0.10;;;;;;;;;;4993123;28;20039;-88
2024/03/06 07:57:37;;;;;;;0.10;0.10;;;;;;;;;;4998446;28;20433;-88
2024/03/06 08:00:14;;;;;;;0.10;0.10;;;;;;;;;;4998891;28;20027;-87
2024/03/06 08:02:43;;;;;;;0.10;0.10;;;7.50;99.90;;;;;;4991566;28;20035;-88
2024/03/06 08:05:12;;;;;;;0.10;0.10;;;7.50;99.90;;;;;;4992151;28;20026;-86
2024/03/06 08:07:38;;;;;;;0.10;0.10;;;;;;;;;;4994582;28;20026;-87
2024/03/06 08:10:05;;;;;;;0.00;0.00;;;;;;;;;;4991358;28;20038;-88
2024/03/06 08:12:31;;;;;;;0.10;0.10;;;;;;;;;;4996885;28;20081;-88
2024/03/06 08:14:57;;;;;;;0.10;0.10;;;;;;;;;;4995327;28;20077;-88
2024/03/06 08:17:22;;;;;;;0.10;0.10;;;7.60;99.90;;;;;;4991468;28;20604;-88
2024/03/06 08:19:48;;;;;;;0.10;0.10;;;;;;;;;;4994223;28;20038;-89
2024/03/06 08:22:14;;;;;;;0.10;0.10;;;;;;;;;;4990741;28;20022;-88
2024/03/06 08:24:40;;;;;;;0.10;0.10;;;;;;;;;;4995780;28;20507;-88
2024/03/06 08:27:06;;;;;;;0.10;0.10;;;;;;;;;;4996661;28;20034;-88
2024/03/06 08:29:32;;;;;;;0.10;0.10;;;;;;;;;;4996378;28;20037;-88
2024/03/06 08:31:59;;;;;;;0.10;0.10;;;;;;;;;;4996356;28;20026;-88
2024/03/06 08:34:25;;;;;;;0.10;0.10;;;;;;;;;;4998104;28;20022;-88
2024/03/06 08:36:53;;;;;;;0.10;0.10;;;;;;;;;;4996907;28;20185;-87
2024/03/06 08:39:19;;;;;;;0.10;0.10;;;;;;;;;;4994399;28;20416;-87
2024/03/06 08:41:44;;;;;;;0.10;0.10;;;;;;;;;;4996876;28;20034;-88
2024/03/06 08:44:10;;;;;;;0.10;0.10;;;;;;;;;;4992730;28;20027;-86
2024/03/06 08:46:36;;;;;;;0.10;0.10;;;;;;;;;;4994961;28;20023;-89
2024/03/06 08:49:02;;;;;;;0.03;0.03;;;;;;;;;;4996912;28;20085;-88
2024/03/06 08:51:28;;;;;;;0.00;0.00;;;;;;;;;;4997839;28;20030;-88
2024/03/06 08:53:54;;;;;;;0.10;0.10;;;;;;;;;;5015355;22;20041;-89
2024/03/06 08:56:20;;;;;;;0.10;0.10;;;;;;;;;;5015343;28;20022;-88
2024/03/06 08:58:46;;;;;;;0.10;0.10;;;;;;;;;;5015699;28;20373;-88
2024/03/06 09:01:12;;;;;;;0.10;0.10;;;;;;;;;;5008465;28;20030;-90
2024/03/06 09:03:38;;;;;;;0.03;0.03;;;;;;;;;;5004019;28;20030;-90
2024/03/06 09:06:04;;;;;;;0.10;0.10;;;;;;;;;;4996410;28;20042;-90
2024/03/06 09:08:30;;;;;;;0.00;0.00;;;;;;;;;;4986934;28;20535;-89
2024/03/06 09:10:58;;;;;;;0.10;0.10;;;;;;;;;;4994656;28;20034;-90
2024/03/06 09:13:24;;;;;;;0.10;0.10;;;;;;;;;;4993310;28;20026;-91
2024/03/06 09:15:50;;;;;;;0.10;0.10;;;;;;;;;;4995306;28;20024;-92
2024/03/06 09:18:16;;;;;;;0.10;0.10;;;;;;;;;;4991436;28;20417;-90
2024/03/06 09:20:43;;;;;;;0.10;0.10;;;;;;;;;;4990289;28;20037;-89
2024/03/06 09:23:09;;;;;;;0.10;0.10;;;;;;;;;;4993942;28;20625;-90
2024/03/06 09:25:34;;;;;;;0.10;0.10;;;;;;;;;;4992096;28;20026;-89
2024/03/06 09:28:04;;;;;;;0.10;0.10;;;;;;;;;;4996364;28;20041;-88
2024/03/06 09:30:30;;;;;;;0.10;0.10;;;;;;;;;;4990205;28;20564;-89
2024/03/06 09:32:56;;;;;;;0.10;0.10;;;;;;;;;;4994001;28;20061;-89
2024/03/06 09:35:22;;;;;;;0.10;0.10;;;;;;;;;;4996589;28;20034;-89
2024/03/06 09:37:48;;;;;;;0.10;0.10;;;;;;;;;;4996245;28;20018;-90
2024/03/06 09:40:24;;;;;;;0.10;0.10;;;8.30;99.90;;;;;;4996218;28;20432;-92
2024/03/06 09:42:51;;;;;;;0.00;0.00;;;8.30;99.90;;;;;;4984510;28;20042;-89
2024/03/06 09:45:19;;;;;;;0.10;0.10;;;;;;;;;;4994083;28;20108;-89
2024/03/06 09:47:46;;;;;;;0.10;0.10;;;8.40;99.90;;;;;;4994259;28;20041;-90
2024/03/06 09:50:15;;;;;;;0.03;0.03;;;8.30;99.90;;;;;;4993634;28;20298;-90
2024/03/06 09:52:43;;;;;;;0.10;0.10;;;8.30;99.90;;;;;;4993622;28;20038;-89
2024/03/06 09:55:09;;;;;;;0.10;0.10;;;;;;;;;;4994886;28;20052;-90
2024/03/06 09:57:35;;;;;;;0.10;0.10;;;;;;;;;;4992995;28;20026;-90
2024/03/06 10:00:01;;;;;;;0.00;0.00;;;;;;;;;;4992329;28;20049;-91
2024/03/06 10:02:49;;;;;;;0.10;0.10;;;8.70;99.90;;;;;;4989465;28;20034;-89
2024/03/06 10:05:22;;;;;;;0.00;0.00;;;8.60;99.90;;;;;;4990706;28;20026;-92
2024/03/06 10:07:48;;;;;;;0.00;0.00;;;;;;;;;;4994513;28;20057;-91
2024/03/06 10:10:15;;;;;;;0.00;0.00;;;;;;;;;;4992178;28;20365;-90
2024/03/06 10:12:42;;;;;;;0.00;0.00;;;;;;;;;;4993725;28;20022;-89
2024/03/06 10:15:12;;;;;;;0.10;0.10;;;;;;;;;;4990482;28;20030;-88
2024/03/06 10:17:38;;;;;;;0.10;0.10;;;;;;;;;;4994827;28;20034;-89
2024/03/06 10:20:24;;;;;;;0.10;0.10;;;8.90;99.90;;;;;;4995142;28;20488;-89
2024/03/06 10:22:53;;;;;;;0.10;0.10;;;8.60;99.90;;;;;;4989233;28;20034;-92
2024/03/06 10:25:21;;;;;;;0.10;0.10;;;8.80;99.90;;;;;;4991308;28;20057;-91
2024/03/06 10:27:47;;;;;;;0.03;0.03;;;;;;;;;;4994095;28;20104;-89
2024/03/06 10:30:14;;;;;;;0.10;0.10;;;;;;;;;;4994637;28;20015;-91
2024/03/06 10:32:40;;;;;;;0.00;0.00;;;;;;;;;;4990262;28;20060;-90
2024/03/06 10:35:07;;;;;;;0.00;0.00;;;;;;;;;;4992515;28;20026;-89
2024/03/06 10:37:36;;;;;;;0.05;0.05;;;;;;;;;;4991967;28;20082;-88
2024/03/06 10:40:06;;;;;;;0.10;0.10;;;9.00;99.90;;;;;;4995136;28;20216;-91
2024/03/06 10:42:34;;;;;;;0.00;0.00;;;9.30;99.90;;;;;;4995471;28;20042;-89
2024/03/06 10:45:02;;;;;;;0.10;0.10;;;9.30;99.90;;;;;;4996989;28;20030;-89
2024/03/06 10:47:28;;;;;;;0.10;0.10;;;;;;;;;;4996303;28;20026;-91
2024/03/06 10:49:59;;;;;;;0.10;0.10;;;9.40;99.90;;;;;;5010886;28;20038;-90
2024/03/06 10:52:27;;;;;;;0.10;0.10;;;;;;;;;;4995222;28;20030;-90
2024/03/06 10:54:54;;;;;;;0.10;0.10;;;9.40;99.90;;;;;;4989512;28;20031;-91
2024/03/06 10:57:20;;;;;;;0.10;0.10;;;;;;;;;;4996448;28;20030;-89
2024/03/06 10:59:47;;;;;;;0.00;0.00;;;;;;;;;;4990241;28;20030;-90
2024/03/06 11:02:13;;;;;;;0.00;0.00;;;;;;;;;;4993451;28;20053;-90
2024/03/06 11:04:40;;;;;;;0.10;0.10;;;9.50;99.90;;;;;;4995095;28;20029;-89
2024/03/06 11:07:06;;;;;;;0.03;0.03;;;;;;;;;;4996555;28;20435;-89
2024/03/06 11:09:37;;;;;;;0.00;0.00;;;9.50;99.90;;;;;;4989105;28;20031;-90
2024/03/06 11:12:06;;;;;;;0.10;0.10;;;;;;;;;;4995322;28;20376;-86
2024/03/06 11:14:32;;;;;;;0.00;0.00;;;;;;;;;;4996026;28;20030;-89
2024/03/06 11:17:06;;;;;;;0.00;0.00;;;9.80;99.90;;;;;;4994214;28;20035;-90
2024/03/06 11:19:52;;;;;;;0.10;0.10;;;9.80;99.90;;;;;;5008337;28;20117;-91
2024/03/06 11:22:18;;;;;;;0.10;0.10;;;;;;;;;;4997077;28;20037;-91
2024/03/06 11:24:44;;;;;;;0.00;0.00;;;;;;;;;;4998523;28;20030;-89
2024/03/06 11:27:15;;;;;;;0.00;0.00;;;;;;;;;;5001353;28;20065;-90
2024/03/06 11:30:10;;;;;;;0.10;0.10;;;10.10;99.90;;;;;;5001549;28;20053;-89
2024/03/06 11:32:36;;;;;;;0.00;0.00;;;;;;;;;;4999916;28;20026;-88
2024/03/06 11:35:02;;;;;;;0.00;0.00;;;9.90;99.90;;;;;;5001475;28;20429;-89
2024/03/06 11:37:28;;;;;;;0.10;0.10;;;;;;;;;;4999698;28;20026;-90
2024/03/06 11:40:00;;;;;;;0.00;0.00;;;10.00;99.90;;;;;;4999484;28;20030;-89
2024/03/06 11:42:39;;;;;;;0.00;0.00;;;10.10;99.90;;;;;;4985735;28;20031;-89
2024/03/06 11:45:17;;;;;;;0.03;0.03;;;9.90;99.90;;;;;;4996933;28;20022;-89
2024/03/06 11:48:02;;;;;;;0.10;0.10;;;10.20;99.90;;;;;;4992717;28;20018;-89
2024/03/06 11:50:30;;;;;;;0.00;0.00;;;;;;;;;;5001199;28;20041;-89
2024/03/06 11:52:56;;;;;;;0.00;0.00;;;;;;;;;;5002481;28;20088;-89
2024/03/06 11:55:22;;;;;;;0.10;0.10;;;10.20;99.90;;;;;;4995366;28;20103;-91
2024/03/06 11:57:48;;;;;;;0.00;0.00;;;;;;;;;;5003492;28;20420;-89
2024/03/06 12:00:14;;;;;;;0.00;0.00;;;;;;;;;;4994784;28;20122;-91
2024/03/06 12:02:41;;;;;;;0.08;0.08;;;;;;;;;;4993491;28;20029;-89
2024/03/06 12:05:10;;;;;;;0.10;0.10;;;;;;;;;;4998844;28;20712;-90
2024/03/06 12:07:45;;;;;;;0.00;0.00;;;10.30;99.90;;;;;;4997242;28;20034;-90
2024/03/06 12:10:11;;;;;;;0.10;0.10;;;;;;;;;;4999540;28;20052;-89
2024/03/06 12:12:37;;;;;;;0.08;0.08;;;;;;;;;;4995772;28;20120;-90
2024/03/06 12:15:06;;;;;;;0.00;0.00;;;10.20;99.90;;;;;;4997360;28;20108;-91
2024/03/06 12:17:32;;;;;;;0.00;0.00;;;;;;;;;;4998945;28;20030;-90
2024/03/06 12:19:58;;;;;;;0.00;0.00;;;;;;;;;;4991861;28;20061;-90
2024/03/06 12:22:25;;;;;;;0.00;0.00;;;10.60;99.90;;;;;;4993916;28;20027;-91
2024/03/06 12:25:01;;;;;;;0.00;0.00;;;10.60;99.90;;;;;;4996070;28;20031;-89
2024/03/06 12:27:27;;;;;;;0.10;0.10;;;;;;;;;;4996373;28;20064;-89
2024/03/06 12:29:53;;;;;;;0.00;0.00;;;10.70;99.90;;;;;;4998057;28;20031;-91
2024/03/06 12:32:19;;;;;;;0.10;0.10;;;;;;;;;;4994731;28;20039;-89
2024/03/06 12:34:45;;;;;;;0.00;0.00;;;;;;;;;;4997314;28;20030;-89
2024/03/06 12:37:11;;;;;;;0.00;0.00;;;;;;;;;;4995685;28;20023;-90
2024/03/06 12:39:37;;;;;;;0.00;0.00;;;;;;;;;;4995508;28;20040;-90
2024/03/06 12:42:03;;;;;;;0.00;0.00;;;;;;;;;;4998123;28;20030;-89
2024/03/06 12:44:28;;;;;;;0.00;0.00;;;;;;;;;;4995678;28;20038;-89
2024/03/06 12:46:54;;;;;;;0.00;0.00;;;;;;;;;;4991891;28;20057;-89
2024/03/06 12:49:20;;;;;;;0.00;0.00;;;;;;;;;;4999122;28;20508;-89
2024/03/06 12:51:46;;;;;;;0.00;0.00;;;;;;;;;;4999040;28;20026;-89
2024/03/06 12:54:12;;;;;;;0.00;0.00;;;;;;;;;;4999404;28;20041;-89
2024/03/06 12:56:38;;;;;;;0.00;0.00;;;;;;;;;;4999216;28;20038;-91
2024/03/06 12:59:04;;;;;;;0.00;0.00;;;;;;;;;;4997991;28;20632;-90
2024/03/06 13:01:31;;;;;;;0.00;0.00;;;;;;;;;;4999983;28;20039;-89
2024/03/06 13:03:57;;;;;;;0.00;0.00;;;;;;;;;;4999113;28;20034;-91
2024/03/06 13:06:23;;;;;;;0.00;0.00;;;;;;;;;;4993932;28;20407;-89
2024/03/06 13:08:49;;;;;;;0.00;0.00;;;;;;;;;;4998729;28;20084;-91
2024/03/06 13:11:15;;;;;;;0.00;0.00;;;;;;;;;;4999928;28;20034;-88
2024/03/06 13:13:41;;;;;;;0.00;0.00;;;;;;;;;;4997658;28;20441;-89
2024/03/06 13:16:09;;;;;;;0.00;0.00;;;;;;;;;;4999653;28;20124;-89
2024/03/06 13:18:35;;;;;;;0.00;0.00;;;;;;;;;;4993374;28;20030;-89
2024/03/06 13:21:01;;;;;;;0.00;0.00;;;;;;;;;;4996664;28;20061;-90
2024/03/06 13:23:27;;;;;;;0.00;0.00;;;;;;;;;;4993022;28;20080;-89
2024/03/06 13:25:53;;;;;;;0.00;0.00;;;;;;;;;;4993916;28;20109;-90
2024/03/06 13:28:20;;;;;;;0.00;0.00;;;;;;;;;;4991070;28;20018;-89
2024/03/06 13:30:46;;;;;;;0.00;0.00;;;;;;;;;;4996977;28;20038;-91
2024/03/06 13:33:12;;;;;;;0.00;0.00;;;;;;;;;;4999445;28;20019;-90
2024/03/06 13:35:38;;;;;;;0.00;0.00;;;;;;;;;;4996094;28;20034;-89
2024/03/06 13:38:04;;;;;;;0.00;0.00;;;;;;;;;;4996274;28;20496;-91
2024/03/06 13:40:30;;;;;;;0.00;0.00;;;;;;;;;;4995946;28;20026;-89
2024/03/06 13:42:56;;;;;;;0.00;0.00;;;;;;;;;;4994722;28;20468;-88
2024/03/06 13:45:22;;;;;;;0.00;0.00;;;;;;;;;;4994249;28;20034;-91
2024/03/06 13:47:49;;;;;;;0.00;0.00;;;;;;;;;;4996977;28;20033;-90
2024/03/06 13:50:15;;;;;;;0.00;0.00;;;;;;;;;;4994381;28;20514;-93
2024/03/06 13:52:42;;;;;;;0.00;0.00;;;;;;;;;;4995790;28;20090;-91
2024/03/06 13:55:08;;;;;;;0.00;0.00;;;;;;;;;;4992645;28;20457;-91
2024/03/06 14:00:43;;;;;;;0.00;0.00;;;;;;;;;;4989424;28;20110;-91
2024/03/06 14:03:11;;;;;;;0.00;0.00;;;;;;;;;;4995308;28;20031;-91
2024/03/06 14:05:37;;;;;;;0.00;0.00;;;;;;;;;;4992744;28;20097;-90
2024/03/06 14:08:03;;;;;;;0.00;0.00;;;;;;;;;;4996019;28;20026;-88
2024/03/06 14:10:33;;;;;;;0.00;0.00;;;;;;;;;;4995638;28;20038;-88
2024/03/06 14:12:59;;;;;;;0.00;0.00;;;;;;;;;;4995445;28;20408;-92
2024/03/06 14:15:26;;;;;;;0.00;0.00;;;;;;;;;;4993598;28;20519;-91
2024/03/06 14:18:20;;;;;;;0.00;0.00;;;;;;;;;;4993872;28;20030;-92
2024/03/06 14:20:46;;;;;;;0.00;0.00;;;;;;;;;;4984535;28;20045;-91
2024/03/06 14:23:12;;;;;;;0.00;0.00;;;;;;;;;;4997012;28;20037;-91
2024/03/06 14:25:38;;;;;;;0.00;0.00;;;;;;;;;;4997406;28;20022;-90
2024/03/06 14:28:04;;;;;;;0.00;0.00;;;;;;;;;;4996882;28;20026;-89
2024/03/06 14:30:30;;;;;;;0.00;0.00;;;;;;;;;;4998379;28;20030;-89
2024/03/06 14:32:59;;;;;;;0.00;0.00;;;;;;;;;;4996335;28;20605;-89
2024/03/06 14:35:31;;;;;;;0.00;0.00;;;;;;;;;;4999256;28;20030;-90
2024/03/06 14:38:00;;;;;;;0.00;0.00;;;;;;;;;;4999463;28;20034;-89
2024/03/06 14:40:30;;;;;;;0.00;0.00;;;;;;;;;;4996694;28;20030;-90
2024/03/06 14:42:56;;;;;;;0.00;0.00;;;;;;;;;;4998846;28;20042;-90
2024/03/06 14:45:23;;;;;;;0.00;0.00;;;;;;;;;;4996159;28;20026;-91
2024/03/06 14:47:49;;;;;;;0.00;0.00;;;;;;;;;;4994136;28;20089;-90
2024/03/06 14:50:14;;;;;;;0.00;0.00;;;;;;;;;;4996883;28;20023;-89
2024/03/06 14:52:44;;;;;;;0.00;0.00;;;11.40;99.90;;;;;;4998663;28;20030;-90